Time;durP1;ratioP1;P1;durP2;ratioP2;P2;SDS_P1;SDS_P2;PMS_P1;PMS_P2;Temp;Humidity;BMP_temperature;BMP_pressure;BME280_temperature;BME280_humidity;BME280_pressure;Samples;Min_cycle;Max_cycle;Signal;HPM_P1;HPM_P2
2021/07/21 00:01:25;;;;;;;11.07;7.63;;;18.50;92.20;;;;;;5012485;28;20787;-67
2021/07/21 00:03:51;;;;;;;11.93;8.00;;;18.50;92.20;;;;;;5012757;28;20029;-66
2021/07/21 00:06:17;;;;;;;13.05;7.68;;;18.50;92.20;;;;;;5012947;28;20037;-66
2021/07/21 00:08:42;;;;;;;12.38;8.43;;;18.50;92.20;;;;;;5012357;28;20030;-67
2021/07/21 00:13:54;;;;;;;16.83;8.50;;;18.50;92.30;;;;;;5010348;28;20026;-67
2021/07/21 00:16:27;;;;;;;15.13;8.63;;;18.50;92.30;;;;;;5012744;28;20092;-67
2021/07/21 00:18:57;;;;;;;11.02;7.50;;;18.50;92.30;;;;;;5012266;28;20757;-66
2021/07/21 00:21:25;;;;;;;12.73;8.15;;;18.50;92.30;;;;;;5012192;28;20088;-66
2021/07/21 00:23:52;;;;;;;12.10;7.22;;;18.50;92.30;;;;;;5012520;28;20022;-67
2021/07/21 00:26:18;;;;;;;11.23;7.15;;;18.50;92.30;;;;;;5012501;28;20066;-67
2021/07/21 00:28:44;;;;;;;12.35;8.18;;;18.60;92.30;;;;;;5012122;28;20116;-66
2021/07/21 00:31:11;;;;;;;11.73;8.43;;;18.50;92.30;;;;;;5011280;28;20132;-73
2021/07/21 00:33:37;;;;;;;12.18;8.50;;;18.50;92.40;;;;;;4993211;28;20373;-67
2021/07/21 00:36:03;;;;;;;10.73;8.30;;;18.50;92.40;;;;;;4993043;28;20041;-66
2021/07/21 00:38:29;;;;;;;13.50;7.82;;;18.50;92.50;;;;;;4992686;28;20069;-66
2021/07/21 00:40:55;;;;;;;14.25;8.23;;;18.50;92.50;;;;;;4992443;28;20069;-66
2021/07/21 00:43:21;;;;;;;13.20;7.65;;;18.50;92.60;;;;;;4992918;28;20377;-66
2021/07/21 00:45:46;;;;;;;13.00;8.07;;;18.50;92.60;;;;;;4992690;28;20037;-67
2021/07/21 00:48:12;;;;;;;14.10;8.85;;;18.50;92.70;;;;;;4992015;28;20046;-67
2021/07/21 00:50:38;;;;;;;13.18;8.57;;;18.50;92.90;;;;;;4992155;28;20034;-67
2021/07/21 00:53:03;;;;;;;13.98;9.10;;;18.40;92.90;;;;;;4992682;28;20037;-66
2021/07/21 00:55:29;;;;;;;12.10;8.35;;;18.40;93.10;;;;;;4992431;28;20030;-66
2021/07/21 00:57:56;;;;;;;13.45;8.15;;;18.40;93.20;;;;;;4991869;28;20038;-66
2021/07/21 01:00:23;;;;;;;15.20;8.98;;;18.40;93.40;;;;;;4991930;28;20041;-67
2021/07/21 01:02:50;;;;;;;11.93;8.63;;;18.40;93.50;;;;;;4992490;28;20042;-67
2021/07/21 01:05:41;;;;;;;14.88;8.98;;;18.30;93.60;;;;;;4992356;28;20366;-66
2021/07/21 01:08:07;;;;;;;;;;;18.30;93.70;;;;;;4992241;28;20041;-66
2021/07/21 01:10:34;;;;;;;15.77;9.23;;;18.20;94.20;;;;;;4989262;28;19905;-67
2021/07/21 01:13:21;;;;;;;12.07;9.32;;;18.30;94.20;;;;;;4989291;28;20377;-67
2021/07/21 01:15:56;;;;;;;11.35;8.27;;;18.30;94.10;;;;;;4992083;28;20386;-66
2021/07/21 01:18:43;;;;;;;14.02;8.55;;;18.20;94.10;;;;;;4991538;28;20504;-66
2021/07/21 01:21:50;;;;;;;15.65;9.55;;;18.30;94.20;;;;;;4991715;28;20037;-66
2021/07/21 01:24:26;;;;;;;13.63;9.25;;;18.20;94.20;;;;;;4997522;28;20026;-66
2021/07/21 01:27:14;;;;;;;15.88;9.38;;;18.20;94.20;;;;;;4996539;28;20376;-67
2021/07/21 01:29:43;;;;;;;13.02;8.48;;;18.30;94.40;;;;;;4971940;28;20076;-67
2021/07/21 01:32:10;;;;;;;15.95;9.40;;;18.20;94.30;;;;;;4983971;28;20029;-67
2021/07/21 01:34:36;;;;;;;14.15;8.93;;;18.20;94.30;;;;;;5011423;28;20026;-67
2021/07/21 01:37:04;;;;;;;12.93;9.38;;;18.20;94.40;;;;;;5010460;28;20057;-66
2021/07/21 01:39:33;;;;;;;15.80;9.52;;;18.20;94.60;;;;;;5010213;28;20033;-67
2021/07/21 01:42:07;;;;;;;14.63;9.20;;;18.20;94.60;;;;;;4994646;28;20040;-66
2021/07/21 01:44:39;;;;;;;15.63;9.63;;;18.20;94.50;;;;;;4991764;28;20034;-67
2021/07/21 01:47:05;;;;;;;15.48;9.82;;;18.20;94.60;;;;;;4991202;28;20041;-67
2021/07/21 01:49:39;;;;;;;13.43;9.60;;;18.10;94.50;;;;;;4990797;28;20532;-67
2021/07/21 01:52:09;;;;;;;14.02;8.65;;;18.20;94.70;;;;;;4991756;28;20121;-66
2021/07/21 01:54:36;;;;;;;13.13;8.77;;;18.20;94.70;;;;;;4991996;28;20022;-66
2021/07/21 01:57:02;;;;;;;13.90;9.25;;;18.20;94.60;;;;;;4991783;28;20759;-69
2021/07/21 01:59:30;;;;;;;12.80;9.07;;;18.20;94.70;;;;;;5010716;28;20069;-67
2021/07/21 02:02:00;;;;;;;15.10;9.07;;;18.20;94.70;;;;;;5010942;28;20060;-67
2021/07/21 02:04:26;;;;;;;18.13;11.05;;;18.10;94.90;;;;;;5010936;28;20061;-66
2021/07/21 02:06:53;;;;;;;14.45;9.13;;;18.10;94.90;;;;;;5010880;28;20037;-66
2021/07/21 02:09:19;;;;;;;16.40;10.45;;;18.10;94.90;;;;;;5009619;28;20036;-67
2021/07/21 02:11:46;;;;;;;16.20;10.25;;;18.20;94.90;;;;;;5008372;28;20523;-66
2021/07/21 02:14:15;;;;;;;16.00;9.75;;;18.20;94.80;;;;;;5008540;28;20037;-66
2021/07/21 02:16:41;;;;;;;15.80;10.35;;;18.20;94.90;;;;;;5010816;28;20034;-66
2021/07/21 02:19:08;;;;;;;17.13;10.45;;;18.10;94.80;;;;;;4992343;28;20036;-69
2021/07/21 02:21:39;;;;;;;13.25;9.70;;;18.20;95.00;;;;;;5011231;28;20044;-66
2021/07/21 02:24:06;;;;;;;15.63;9.50;;;18.10;94.90;;;;;;5007445;28;20097;-68
2021/07/21 02:26:36;;;;;;;15.15;10.38;;;18.20;95.00;;;;;;5006085;28;20034;-67
2021/07/21 02:29:05;;;;;;;15.53;10.20;;;18.10;95.00;;;;;;4999052;28;20042;-66
2021/07/21 02:31:37;;;;;;;13.73;9.57;;;18.10;94.90;;;;;;4996460;28;20037;-66
2021/07/21 02:34:03;;;;;;;15.05;9.88;;;18.20;94.90;;;;;;4997397;28;20555;-67
2021/07/21 02:36:33;;;;;;;16.23;10.13;;;18.10;94.90;;;;;;5014990;28;20101;-66
2021/07/21 02:38:59;;;;;;;14.18;9.52;;;18.20;95.00;;;;;;5014312;28;20040;-66
2021/07/21 02:41:25;;;;;;;14.88;9.02;;;18.10;94.90;;;;;;5014100;28;20030;-67
2021/07/21 02:43:51;;;;;;;19.13;11.63;;;18.10;95.10;;;;;;5014635;28;20658;-67
2021/07/21 02:46:17;;;;;;;15.98;9.75;;;18.20;95.20;;;;;;5014304;28;20037;-66
2021/07/21 02:48:45;;;;;;;13.52;9.27;;;18.10;95.10;;;;;;5013808;28;20030;-66
2021/07/21 02:51:20;;;;;;;13.15;9.30;;;18.10;95.20;;;;;;4996264;28;20045;-66
2021/07/21 02:53:56;;;;;;;17.02;9.90;;;18.10;95.20;;;;;;5014592;28;20061;-66
2021/07/21 02:56:25;;;;;;;13.50;10.15;;;18.10;95.20;;;;;;5014094;28;20100;-67
2021/07/21 02:59:01;;;;;;;15.57;9.82;;;18.10;95.20;;;;;;4998417;28;20504;-66
2021/07/21 03:01:29;;;;;;;14.50;9.73;;;18.10;95.20;;;;;;4994297;28;20073;-67
2021/07/21 03:03:55;;;;;;;18.17;10.23;;;18.10;95.20;;;;;;4994545;28;20093;-66
2021/07/21 03:06:24;;;;;;;15.77;9.80;;;18.10;95.20;;;;;;4994365;28;20536;-66
2021/07/21 03:08:51;;;;;;;13.32;8.75;;;18.10;95.20;;;;;;4993862;28;20544;-66
2021/07/21 03:11:19;;;;;;;12.82;9.50;;;18.10;95.30;;;;;;4991094;28;20031;-66
2021/07/21 03:13:59;;;;;;;13.43;9.32;;;18.10;95.30;;;;;;4992032;28;20454;-66
2021/07/21 03:16:28;;;;;;;14.23;9.05;;;18.10;95.30;;;;;;4994694;28;20030;-66
2021/07/21 03:18:59;;;;;;;15.95;9.88;;;18.10;95.30;;;;;;4993666;28;20046;-66
2021/07/21 03:21:27;;;;;;;13.13;9.43;;;18.00;95.20;;;;;;4994041;28;20019;-66
2021/07/21 03:23:53;;;;;;;13.63;9.32;;;18.10;95.40;;;;;;4997436;28;20484;-67
2021/07/21 03:26:20;;;;;;;15.30;8.85;;;18.10;95.40;;;;;;5002762;28;20030;-67
2021/07/21 03:28:51;;;;;;;14.98;9.65;;;18.10;95.60;;;;;;5006359;28;20030;-67
2021/07/21 03:31:18;;;;;;;14.38;9.60;;;18.10;95.30;;;;;;5013127;28;20050;-67
2021/07/21 03:33:46;;;;;;;13.35;9.00;;;18.10;95.20;;;;;;4994911;28;20034;-66
2021/07/21 03:36:13;;;;;;;16.17;9.43;;;18.00;95.20;;;;;;4993654;28;20385;-67
2021/07/21 03:38:42;;;;;;;14.20;9.43;;;18.00;95.20;;;;;;4992582;28;20034;-66
2021/07/21 03:41:09;;;;;;;15.50;9.27;;;18.10;95.30;;;;;;5002795;28;20041;-67
2021/07/21 03:43:35;;;;;;;14.10;9.38;;;18.00;95.20;;;;;;5013567;28;20037;-67
2021/07/21 03:46:02;;;;;;;14.63;9.50;;;18.10;95.20;;;;;;5013150;28;20412;-67
2021/07/21 03:48:28;;;;;;;13.25;9.07;;;18.10;95.20;;;;;;5012607;28;20037;-66
2021/07/21 03:50:57;;;;;;;11.75;8.82;;;18.00;95.20;;;;;;5012490;28;20045;-67
2021/07/21 03:53:24;;;;;;;16.05;9.23;;;18.00;95.20;;;;;;5013373;28;20037;-67
2021/07/21 03:55:50;;;;;;;12.77;8.93;;;18.00;95.20;;;;;;5013205;28;20105;-68
2021/07/21 03:58:15;;;;;;;13.82;9.30;;;18.00;95.20;;;;;;4999562;28;20165;-68
2021/07/21 04:00:42;;;;;;;15.43;9.70;;;18.10;95.20;;;;;;4992857;28;20470;-68
2021/07/21 04:03:09;;;;;;;15.45;9.63;;;18.10;95.10;;;;;;4993532;28;20038;-67
2021/07/21 04:05:35;;;;;;;13.05;9.00;;;18.10;95.00;;;;;;4993324;28;20523;-67
2021/07/21 04:08:02;;;;;;;14.38;8.50;;;18.00;95.00;;;;;;4992748;28;20041;-67
2021/07/21 04:10:29;;;;;;;13.77;8.93;;;18.00;95.10;;;;;;4990172;28;20049;-67
2021/07/21 04:12:57;;;;;;;13.32;9.00;;;18.00;95.20;;;;;;4990736;28;20030;-67
2021/07/21 04:15:24;;;;;;;13.60;8.85;;;18.00;95.20;;;;;;4993047;28;20110;-67
2021/07/21 04:17:53;;;;;;;13.70;8.75;;;18.00;95.30;;;;;;4992802;28;20030;-66
2021/07/21 04:20:21;;;;;;;15.27;9.70;;;18.00;95.30;;;;;;4992864;28;20037;-67
2021/07/21 04:22:46;;;;;;;15.90;9.73;;;18.00;95.30;;;;;;4993405;28;20069;-66
2021/07/21 04:25:14;;;;;;;16.17;9.50;;;18.00;95.20;;;;;;4993000;28;20083;-68
2021/07/21 04:27:42;;;;;;;15.85;9.88;;;18.00;95.20;;;;;;4992490;28;20041;-66
2021/07/21 04:30:08;;;;;;;16.30;8.93;;;18.00;95.40;;;;;;4975064;28;20140;-66
2021/07/21 04:32:35;;;;;;;15.93;9.73;;;18.00;95.20;;;;;;5005186;28;20053;-68
2021/07/21 04:35:03;;;;;;;18.17;10.27;;;18.00;95.30;;;;;;5012615;28;20026;-67
2021/07/21 04:37:28;;;;;;;14.93;8.98;;;18.00;95.30;;;;;;5012572;28;20038;-68
2021/07/21 04:39:55;;;;;;;13.90;8.88;;;18.00;95.30;;;;;;5011910;28;20032;-66
2021/07/21 04:42:28;;;;;;;16.02;9.68;;;18.10;95.30;;;;;;5012242;28;20037;-67
2021/07/21 04:44:55;;;;;;;16.58;10.05;;;18.10;95.20;;;;;;5012208;28;20346;-66
2021/07/21 04:47:22;;;;;;;15.45;9.50;;;18.10;95.20;;;;;;5011528;28;20033;-66
2021/07/21 04:49:49;;;;;;;16.42;10.05;;;18.10;95.10;;;;;;5011468;28;20026;-66
2021/07/21 04:52:16;;;;;;;17.20;10.40;;;18.10;95.10;;;;;;5012280;28;20026;-67
2021/07/21 04:54:42;;;;;;;13.77;9.68;;;18.10;95.00;;;;;;5012140;28;20503;-67
2021/07/21 04:57:10;;;;;;;15.02;10.57;;;18.10;95.10;;;;;;5011677;28;20030;-65
2021/07/21 04:59:37;;;;;;;16.35;10.43;;;18.10;95.10;;;;;;5008724;28;20109;-66
2021/07/21 05:02:04;;;;;;;18.15;10.18;;;18.10;95.10;;;;;;5012293;28;20034;-66
2021/07/21 05:04:29;;;;;;;13.63;8.73;;;18.10;95.00;;;;;;5012211;28;20040;-66
2021/07/21 05:06:55;;;;;;;14.13;9.27;;;18.10;95.00;;;;;;5012055;28;20116;-68
2021/07/21 05:09:21;;;;;;;13.27;9.60;;;18.10;95.00;;;;;;5010995;28;20038;-66
2021/07/21 05:11:46;;;;;;;13.75;9.02;;;18.10;95.00;;;;;;5009225;28;20042;-66
2021/07/21 05:14:12;;;;;;;16.73;10.05;;;18.10;94.90;;;;;;5009350;28;20026;-66
2021/07/21 05:16:38;;;;;;;19.08;12.07;;;18.10;94.90;;;;;;5012011;28;20503;-67
2021/07/21 05:19:03;;;;;;;14.80;10.00;;;18.10;94.90;;;;;;5010701;28;20030;-68
2021/07/21 05:21:31;;;;;;;16.35;10.27;;;18.10;94.90;;;;;;5011848;28;20045;-67
2021/07/21 05:23:56;;;;;;;17.45;11.43;;;18.00;94.90;;;;;;5008712;28;20084;-66
2021/07/21 05:26:23;;;;;;;17.45;10.93;;;18.00;95.00;;;;;;5002756;28;20038;-67
2021/07/21 05:28:48;;;;;;;17.20;11.57;;;18.00;95.00;;;;;;4997239;28;20045;-68
2021/07/21 05:31:14;;;;;;;17.88;9.80;;;18.00;95.00;;;;;;4991927;28;20026;-69
2021/07/21 05:33:40;;;;;;;15.55;10.07;;;18.00;95.00;;;;;;4992141;28;20034;-68
2021/07/21 05:36:06;;;;;;;17.02;10.88;;;18.10;94.90;;;;;;4991827;28;20042;-67
2021/07/21 05:38:32;;;;;;;15.52;10.15;;;18.10;94.90;;;;;;4991249;28;20034;-67
2021/07/21 05:40:58;;;;;;;17.50;11.65;;;18.10;95.00;;;;;;4999419;28;20037;-67
2021/07/21 05:43:26;;;;;;;17.50;9.27;;;18.10;95.00;;;;;;5011315;28;20551;-68
2021/07/21 05:45:51;;;;;;;15.95;10.18;;;18.10;94.90;;;;;;5011167;28;20069;-67
2021/07/21 05:48:17;;;;;;;14.35;9.70;;;18.20;95.00;;;;;;5010770;28;20061;-67
2021/07/21 05:50:43;;;;;;;15.25;10.68;;;18.20;95.00;;;;;;5010842;28;20413;-67
2021/07/21 05:53:09;;;;;;;16.92;10.70;;;18.30;94.90;;;;;;5011502;28;20034;-67
2021/07/21 05:55:35;;;;;;;15.40;10.80;;;18.20;94.80;;;;;;5011185;28;20385;-66
2021/07/21 05:58:01;;;;;;;18.15;11.35;;;18.20;94.90;;;;;;5011327;28;20117;-67
2021/07/21 06:00:27;;;;;;;16.55;10.43;;;18.20;95.00;;;;;;5010004;28;20153;-68
2021/07/21 06:02:53;;;;;;;18.20;11.45;;;18.20;94.80;;;;;;5011003;28;20042;-66
2021/07/21 06:05:18;;;;;;;14.77;10.27;;;18.20;94.80;;;;;;5010993;28;20072;-67
2021/07/21 06:07:44;;;;;;;15.45;9.18;;;18.20;94.90;;;;;;5010261;28;20033;-68
2021/07/21 06:10:11;;;;;;;14.20;9.82;;;18.20;94.90;;;;;;5007749;28;20041;-67
2021/07/21 06:12:36;;;;;;;17.52;10.43;;;18.20;94.80;;;;;;5007585;28;20369;-68
2021/07/21 06:15:04;;;;;;;13.68;8.82;;;18.30;94.80;;;;;;5010966;28;20052;-67
2021/07/21 06:17:31;;;;;;;14.30;9.88;;;18.30;94.70;;;;;;5010464;28;20026;-67
2021/07/21 06:19:57;;;;;;;13.63;9.18;;;18.30;94.60;;;;;;5010597;28;20092;-67
2021/07/21 06:22:23;;;;;;;15.95;9.23;;;18.30;94.60;;;;;;5010746;28;20468;-67
2021/07/21 06:24:49;;;;;;;18.10;10.70;;;18.40;94.70;;;;;;5004674;28;20392;-67
2021/07/21 06:27:15;;;;;;;15.35;10.52;;;18.30;94.60;;;;;;4993010;28;20045;-67
2021/07/21 06:29:41;;;;;;;14.00;9.40;;;18.30;94.60;;;;;;5010284;28;20034;-67
2021/07/21 06:32:08;;;;;;;15.20;9.68;;;18.30;94.70;;;;;;5005297;28;20362;-68
2021/07/21 06:34:33;;;;;;;15.48;9.95;;;18.30;94.60;;;;;;4991502;28;20571;-67
2021/07/21 06:36:59;;;;;;;17.45;10.15;;;18.30;94.60;;;;;;4990996;28;20029;-67
2021/07/21 06:39:25;;;;;;;14.52;9.40;;;18.30;94.60;;;;;;4990202;28;20373;-67
2021/07/21 06:41:51;;;;;;;21.30;13.25;;;18.30;94.60;;;;;;5006399;28;20117;-66
2021/07/21 06:44:16;;;;;;;18.48;10.32;;;18.30;94.60;;;;;;5010489;28;20105;-67
2021/07/21 06:46:42;;;;;;;15.93;10.45;;;18.30;94.60;;;;;;5010511;28;20088;-68
2021/07/21 06:49:08;;;;;;;17.58;10.07;;;18.40;94.70;;;;;;5009654;28;20034;-67
2021/07/21 06:51:33;;;;;;;13.60;9.38;;;18.30;94.70;;;;;;5010652;28;20030;-67
2021/07/21 06:53:59;;;;;;;16.80;10.27;;;18.40;94.70;;;;;;5010531;28;20473;-67
2021/07/21 06:56:25;;;;;;;15.30;9.80;;;18.40;94.60;;;;;;5010789;28;20034;-66
2021/07/21 06:58:52;;;;;;;16.10;10.32;;;18.40;94.60;;;;;;4994433;28;20030;-67
2021/07/21 07:01:19;;;;;;;16.75;9.80;;;18.40;94.50;;;;;;4991189;28;20114;-66
2021/07/21 07:03:46;;;;;;;16.50;9.45;;;18.50;94.60;;;;;;4991179;28;20125;-66
2021/07/21 07:06:13;;;;;;;13.60;8.90;;;18.50;94.60;;;;;;4990715;28;20125;-66
2021/07/21 07:08:38;;;;;;;18.58;10.68;;;18.50;94.40;;;;;;4989865;28;20026;-68
2021/07/21 07:11:04;;;;;;;13.07;9.38;;;18.50;94.30;;;;;;4988544;28;20046;-66
2021/07/21 07:13:30;;;;;;;14.93;9.27;;;18.60;94.30;;;;;;4992180;28;20026;-66
2021/07/21 07:15:56;;;;;;;17.17;10.25;;;18.60;94.20;;;;;;4994550;28;20421;-67
2021/07/21 07:18:21;;;;;;;17.55;10.73;;;18.70;94.20;;;;;;4993887;28;20117;-67
2021/07/21 07:20:48;;;;;;;19.00;10.98;;;18.70;94.20;;;;;;4993606;28;20110;-68
2021/07/21 07:23:14;;;;;;;14.20;9.45;;;18.70;94.00;;;;;;5010630;28;20034;-67
2021/07/21 07:25:41;;;;;;;15.20;9.02;;;18.80;94.00;;;;;;5003427;28;20033;-67
2021/07/21 07:28:07;;;;;;;17.55;9.75;;;18.90;93.90;;;;;;5013249;28;20476;-66
2021/07/21 07:30:33;;;;;;;15.82;10.05;;;18.90;93.80;;;;;;5013280;28;20479;-66
2021/07/21 07:32:59;;;;;;;14.25;9.43;;;18.90;93.60;;;;;;5001087;28;20038;-67
2021/07/21 07:35:25;;;;;;;16.63;10.23;;;18.80;93.50;;;;;;4994008;28;20512;-67
2021/07/21 07:37:51;;;;;;;17.02;10.70;;;18.80;93.50;;;;;;4993358;28;20154;-68
2021/07/21 07:40:17;;;;;;;14.57;9.32;;;18.70;93.50;;;;;;4996089;28;20116;-67
2021/07/21 07:42:43;;;;;;;14.50;9.05;;;18.80;93.60;;;;;;5013557;28;20042;-67
2021/07/21 07:45:09;;;;;;;15.55;9.80;;;18.70;93.60;;;;;;5013582;28;20029;-66
2021/07/21 07:47:36;;;;;;;14.63;8.65;;;18.70;93.70;;;;;;5012984;28;20061;-67
2021/07/21 07:50:06;;;;;;;15.05;8.70;;;18.70;93.70;;;;;;4995366;28;20116;-66
2021/07/21 07:52:32;;;;;;;12.80;9.18;;;18.80;93.90;;;;;;5013822;28;20057;-67
2021/07/21 07:54:58;;;;;;;17.73;10.27;;;18.80;93.90;;;;;;5013176;28;20488;-69
2021/07/21 07:57:24;;;;;;;14.75;9.30;;;18.90;93.90;;;;;;4975420;28;20058;-68
2021/07/21 07:59:50;;;;;;;15.77;10.38;;;18.90;93.80;;;;;;4993081;28;20022;-67
2021/07/21 08:02:15;;;;;;;17.50;10.40;;;18.90;93.90;;;;;;4993504;28;20249;-68
2021/07/21 08:04:41;;;;;;;14.40;9.25;;;18.90;93.80;;;;;;4993330;28;20085;-67
2021/07/21 08:07:07;;;;;;;18.23;10.48;;;18.80;94.00;;;;;;4992874;28;20037;-68
2021/07/21 08:09:32;;;;;;;13.40;8.68;;;18.70;94.00;;;;;;4992863;28;20393;-68
2021/07/21 08:11:59;;;;;;;15.30;9.38;;;18.70;94.10;;;;;;4990398;28;20041;-67
2021/07/21 08:14:26;;;;;;;13.25;9.00;;;18.60;94.20;;;;;;4990301;28;20045;-67
2021/07/21 08:16:53;;;;;;;12.43;8.38;;;18.60;94.10;;;;;;4992866;28;20377;-67
2021/07/21 08:19:20;;;;;;;12.43;7.82;;;18.50;94.20;;;;;;4991837;28;20037;-68
2021/07/21 08:21:47;;;;;;;12.63;8.13;;;18.40;94.40;;;;;;4993338;28;20061;-67
2021/07/21 08:24:14;;;;;;;12.70;7.85;;;18.40;94.50;;;;;;4998489;28;20041;-67
2021/07/21 08:26:40;;;;;;;13.73;8.43;;;18.40;94.50;;;;;;5006362;28;20076;-67
2021/07/21 08:29:08;;;;;;;14.05;8.82;;;18.40;94.70;;;;;;4995827;28;20065;-67
2021/07/21 08:31:34;;;;;;;11.88;8.02;;;18.50;94.60;;;;;;4994029;28;20022;-67
2021/07/21 08:34:01;;;;;;;13.15;7.55;;;18.60;94.40;;;;;;5012612;28;20053;-67
2021/07/21 08:36:31;;;;;;;8.65;6.75;;;18.60;93.50;;;;;;5012516;28;20034;-69
2021/07/21 08:38:57;;;;;;;10.60;7.38;;;18.70;93.60;;;;;;5011325;28;20109;-67
2021/07/21 08:41:26;;;;;;;11.50;6.85;;;18.70;93.20;;;;;;5000675;28;20161;-67
2021/07/21 08:43:52;;;;;;;9.35;6.35;;;18.80;93.40;;;;;;4993044;28;20022;-67
2021/07/21 08:46:18;;;;;;;7.78;5.70;;;18.80;92.50;;;;;;4992584;28;20034;-67
2021/07/21 08:48:43;;;;;;;7.40;5.57;;;18.80;92.60;;;;;;4991698;28;20030;-67
2021/07/21 08:51:10;;;;;;;9.02;5.72;;;18.80;92.70;;;;;;4975359;28;20104;-67
2021/07/21 08:53:37;;;;;;;9.82;5.70;;;18.80;92.70;;;;;;4992923;28;20380;-67
2021/07/21 08:56:04;;;;;;;7.85;5.32;;;18.80;92.80;;;;;;4992554;28;20042;-68
2021/07/21 08:58:30;;;;;;;7.10;5.68;;;18.80;92.80;;;;;;5001005;28;20104;-67
2021/07/21 09:00:56;;;;;;;9.15;6.20;;;18.80;92.80;;;;;;5011990;28;20671;-67
2021/07/21 09:03:22;;;;;;;8.63;6.25;;;18.90;92.80;;;;;;5012265;28;20036;-67
2021/07/21 09:05:50;;;;;;;9.02;6.57;;;19.10;92.80;;;;;;5011949;28;20029;-67
2021/07/21 09:08:16;;;;;;;8.43;6.05;;;19.10;92.80;;;;;;4993765;28;20373;-67
2021/07/21 09:10:45;;;;;;;7.75;5.90;;;19.20;92.80;;;;;;5008691;28;20464;-67
2021/07/21 09:13:12;;;;;;;8.02;5.50;;;19.30;92.70;;;;;;5008940;28;20033;-66
2021/07/21 09:15:38;;;;;;;11.00;6.22;;;19.30;92.70;;;;;;5011825;28;20038;-67
2021/07/21 09:18:12;;;;;;;10.07;6.18;;;19.40;92.60;;;;;;5011001;28;20474;-67
2021/07/21 09:21:00;;;;;;;9.88;6.35;;;19.40;92.50;;;;;;5011145;28;20388;-66
2021/07/21 09:23:40;;;;;;;9.20;6.10;;;19.40;92.30;;;;;;4992616;28;20097;-67
2021/07/21 09:26:08;;;;;;;9.15;5.57;;;19.40;92.10;;;;;;4998149;28;20496;-67
2021/07/21 09:28:36;;;;;;;10.80;6.63;;;19.50;92.30;;;;;;5002003;28;20035;-67
2021/07/21 09:31:03;;;;;;;8.05;5.35;;;19.40;92.10;;;;;;5011009;28;20044;-66
2021/07/21 09:33:30;;;;;;;9.52;5.72;;;19.50;92.20;;;;;;5011524;28;20140;-67
2021/07/21 09:35:57;;;;;;;7.15;4.82;;;19.60;92.10;;;;;;5010698;28;20515;-66
2021/07/21 09:38:32;;;;;;;7.93;5.07;;;19.60;92.00;;;;;;5010547;28;20041;-69
2021/07/21 09:40:59;;;;;;;9.82;5.20;;;19.70;91.80;;;;;;5002138;28;20054;-68
2021/07/21 09:43:28;;;;;;;7.57;5.47;;;19.80;91.80;;;;;;4992007;28;20034;-66
2021/07/21 09:46:01;;;;;;;7.50;5.40;;;19.90;91.70;;;;;;4991647;28;20400;-66
2021/07/21 09:48:39;;;;;;;6.75;4.93;;;19.90;91.40;;;;;;4990705;28;20401;-66
2021/07/21 09:51:05;;;;;;;7.18;5.22;;;19.80;90.60;;;;;;4991617;28;20023;-67
2021/07/21 09:53:40;;;;;;;9.55;5.70;;;19.80;90.80;;;;;;4991675;28;20053;-66
2021/07/21 09:56:06;;;;;;;10.80;5.60;;;19.70;90.50;;;;;;4991418;28;20484;-67
2021/07/21 09:58:36;;;;;;;8.30;6.05;;;19.60;90.40;;;;;;5000143;28;20084;-68
2021/07/21 10:01:02;;;;;;;9.02;6.38;;;19.50;90.10;;;;;;5011004;28;20674;-67
2021/07/21 10:03:30;;;;;;;8.45;6.18;;;19.50;90.20;;;;;;5011224;28;20117;-66
2021/07/21 10:05:59;;;;;;;9.50;6.10;;;19.50;90.20;;;;;;5010819;28;20030;-69
2021/07/21 10:08:47;;;;;;;9.27;6.03;;;19.40;90.50;;;;;;5009838;28;20496;-66
2021/07/21 10:11:36;;;;;;;8.82;5.95;;;19.40;90.60;;;;;;5008290;28;20038;-67
2021/07/21 10:14:02;;;;;;;8.63;5.43;;;19.30;90.60;;;;;;5008376;28;20048;-68
2021/07/21 10:16:45;;;;;;;6.70;5.38;;;19.30;90.80;;;;;;5011287;28;20137;-67
2021/07/21 10:19:22;;;;;;;7.85;5.65;;;19.40;91.00;;;;;;5010060;28;20046;-67
2021/07/21 10:21:57;;;;;;;7.70;5.57;;;19.40;91.00;;;;;;5010977;28;20053;-67
2021/07/21 10:24:25;;;;;;;8.20;5.95;;;19.50;90.80;;;;;;5004757;28;20030;-68
2021/07/21 10:26:53;;;;;;;8.90;6.15;;;19.60;90.60;;;;;;4991541;28;20477;-67
2021/07/21 10:29:20;;;;;;;7.80;5.80;;;19.70;89.80;;;;;;5007467;28;20032;-68
2021/07/21 10:31:46;;;;;;;9.05;6.63;;;19.80;90.10;;;;;;5010768;28;20088;-67
2021/07/21 10:34:15;;;;;;;9.63;5.70;;;19.90;90.10;;;;;;5010737;28;20030;-67
2021/07/21 10:36:41;;;;;;;8.93;6.10;;;20.10;90.00;;;;;;5010632;28;20112;-68
2021/07/21 10:39:15;;;;;;;9.02;5.75;;;20.20;89.40;;;;;;5009487;28;20547;-68
2021/07/21 10:41:44;;;;;;;7.00;5.22;;;20.40;89.00;;;;;;5009754;28;20036;-67
2021/07/21 10:44:12;;;;;;;8.02;5.72;;;20.40;88.80;;;;;;5010670;28;20026;-68
2021/07/21 10:46:41;;;;;;;8.13;5.20;;;20.30;88.60;;;;;;5012024;28;20129;-68
2021/07/21 10:49:23;;;;;;;7.55;5.63;;;20.40;87.80;;;;;;5013259;28;20080;-67
2021/07/21 10:52:31;;;;;;;8.48;5.28;;;20.40;88.40;;;;;;5014575;28;20424;-67
2021/07/21 10:55:01;;;;;;;9.70;5.90;;;20.40;88.70;;;;;;5014388;28;20100;-67
2021/07/21 11:00:19;;;;;;;11.75;5.25;;;20.60;89.40;;;;;;4993436;28;20400;-67
2021/07/21 11:02:46;;;;;;;9.18;5.60;;;20.60;89.10;;;;;;5009853;28;20042;-67
2021/07/21 11:05:33;;;;;;;8.50;5.50;;;20.70;89.40;;;;;;4994688;28;20027;-67
2021/07/21 11:08:00;;;;;;;7.60;5.70;;;20.80;88.40;;;;;;4993743;28;20396;-67
2021/07/21 11:10:31;;;;;;;7.68;5.38;;;20.80;88.00;;;;;;4991451;28;20468;-68
2021/07/21 11:12:57;;;;;;;9.18;5.07;;;20.90;88.10;;;;;;4991934;28;20040;-68
2021/07/21 11:15:42;;;;;;;7.13;5.20;;;20.90;88.00;;;;;;4994506;28;20038;-67
2021/07/21 11:18:23;;;;;;;9.20;5.15;;;21.00;87.80;;;;;;4993734;28;20034;-68
2021/07/21 11:21:02;;;;;;;;;;;21.10;87.20;;;;;;4994812;28;20038;-66
2021/07/21 11:23:50;;;;;;;6.57;4.53;;;21.10;85.50;;;;;;4995931;28;20355;-68
2021/07/21 11:26:31;;;;;;;5.85;5.00;;;21.30;85.90;;;;;;4995105;28;20041;-68
2021/07/21 11:29:16;;;;;;;7.65;5.22;;;21.40;85.40;;;;;;4992927;28;20082;-67
2021/07/21 11:31:54;;;;;;;7.85;4.93;;;21.40;84.50;;;;;;4994256;28;20489;-66
2021/07/21 11:34:29;;;;;;;5.88;4.47;;;21.40;84.90;;;;;;4994237;28;20034;-67
2021/07/21 11:37:01;;;;;;;9.18;5.45;;;21.40;85.00;;;;;;4994159;28;20124;-67
2021/07/21 11:39:47;;;;;;;10.35;6.18;;;21.50;84.70;;;;;;4993105;28;20046;-68
2021/07/21 11:42:29;;;;;;;24.45;9.52;;;21.50;83.80;;;;;;5012194;28;20038;-67
2021/07/21 11:45:08;;;;;;;8.63;5.15;;;21.60;84.20;;;;;;5013620;28;20060;-69
2021/07/21 11:47:36;;;;;;;7.00;4.80;;;21.50;83.00;;;;;;5012566;28;20033;-67
2021/07/21 11:50:17;;;;;;;8.25;5.30;;;21.50;82.60;;;;;;4995268;28;20034;-66
2021/07/21 11:52:42;;;;;;;9.10;5.23;;;21.60;83.50;;;;;;5013426;28;20157;-67
2021/07/21 11:55:09;;;;;;;7.93;4.78;;;21.80;82.60;;;;;;5013289;28;20543;-67
2021/07/21 11:57:34;;;;;;;5.75;4.20;;;22.20;81.00;;;;;;5007225;28;20022;-67
2021/07/21 12:00:00;;;;;;;5.80;4.25;;;23.60;79.80;;;;;;4972554;28;20571;-67
2021/07/21 12:02:27;;;;;;;6.88;4.63;;;24.80;75.70;;;;;;4993677;28;20113;-67
2021/07/21 12:04:54;;;;;;;7.30;4.20;;;25.90;73.80;;;;;;4993673;28;20034;-68
2021/07/21 12:07:22;;;;;;;7.65;4.20;;;27.10;68.80;;;;;;4993126;28;20481;-67
2021/07/21 12:09:51;;;;;;;6.63;4.25;;;27.60;66.90;;;;;;4991932;28;20157;-68
2021/07/21 12:12:20;;;;;;;7.50;4.45;;;27.70;66.30;;;;;;4990557;28;20151;-67
2021/07/21 12:14:53;;;;;;;7.72;4.63;;;27.80;65.80;;;;;;4993549;28;20409;-68
2021/07/21 12:17:20;;;;;;;5.65;4.38;;;27.90;65.00;;;;;;4992946;28;20041;-68
2021/07/21 12:19:58;;;;;;;5.93;4.90;;;28.30;64.40;;;;;;4992914;28;20524;-68
2021/07/21 12:22:25;;;;;;;6.68;4.65;;;28.60;63.00;;;;;;4993545;28;20053;-67
2021/07/21 12:24:53;;;;;;;5.63;3.75;;;28.40;61.30;;;;;;5001472;28;20045;-67
2021/07/21 12:27:41;;;;;;;7.43;4.28;;;27.50;63.40;;;;;;4995125;28;20077;-67
2021/07/21 12:30:12;;;;;;;402.08;338.42;;;26.70;65.70;;;;;;5012029;28;20030;-67
2021/07/21 12:32:38;;;;;;;208.20;152.75;;;25.70;68.30;;;;;;5003073;28;20030;-67
2021/07/21 12:35:07;;;;;;;186.77;142.77;;;24.90;70.40;;;;;;4993053;28;20612;-68
2021/07/21 12:37:38;;;;;;;38.35;33.50;;;24.50;72.50;;;;;;4993046;28;20077;-66
2021/07/21 12:40:13;;;;;;;8.50;5.57;;;24.20;73.50;;;;;;4992701;28;20408;-67
2021/07/21 12:42:39;;;;;;;6.28;4.57;;;24.10;72.20;;;;;;4993013;28;20054;-67
2021/07/21 12:45:14;;;;;;;7.60;5.20;;;24.40;72.80;;;;;;4992610;28;20027;-68
2021/07/21 12:47:45;;;;;;;7.05;4.40;;;24.90;72.20;;;;;;4992239;28;20031;-67
2021/07/21 12:50:13;;;;;;;6.72;4.57;;;25.70;69.30;;;;;;4992081;28;20039;-67
2021/07/21 12:52:53;;;;;;;6.90;4.65;;;26.20;67.80;;;;;;4992860;28;20061;-67